createdAt,value
2023-10-10T00:01:08.650Z,20.17
2023-10-10T00:03:41.823Z,20.00
2023-10-10T00:06:15.180Z,19.50
2023-10-10T00:08:42.760Z,20.10
2023-10-10T00:11:11.424Z,20.50
2023-10-10T00:13:44.328Z,20.13
2023-10-10T00:16:27.272Z,18.80
2023-10-10T00:18:57.611Z,18.00
2023-10-10T00:21:25.035Z,19.20
2023-10-10T00:23:54.432Z,19.20
2023-10-10T00:26:27.325Z,19.97
2023-10-10T00:28:57.308Z,18.90
2023-10-10T00:31:26.833Z,19.27
2023-10-10T00:33:54.448Z,19.57
2023-10-10T00:36:23.123Z,18.67
2023-10-10T00:38:59.906Z,18.93
2023-10-10T00:41:28.096Z,18.20
2023-10-10T00:43:55.197Z,19.80
2023-10-10T00:46:29.522Z,19.10
2023-10-10T00:49:01.192Z,19.50
2023-10-10T00:51:30.987Z,18.07
2023-10-10T00:54:12.760Z,18.03
2023-10-10T00:56:44.934Z,19.60
2023-10-10T00:59:12.421Z,18.30
2023-10-10T01:01:41.824Z,18.80
2023-10-10T01:04:10.982Z,21.40
2023-10-10T01:06:40.178Z,20.10
2023-10-10T01:09:22.863Z,20.03
2023-10-10T01:11:50.347Z,22.43
2023-10-10T01:14:20.204Z,23.10
2023-10-10T01:16:48.981Z,22.30
2023-10-10T01:19:19.045Z,21.87
2023-10-10T01:21:51.983Z,20.83
2023-10-10T01:24:19.150Z,21.10
2023-10-10T01:26:46.624Z,22.17
2023-10-10T01:29:26.471Z,21.50
2023-10-10T01:31:54.708Z,21.27
2023-10-10T01:34:40.962Z,21.00
2023-10-10T01:37:28.573Z,21.67
2023-10-10T01:40:20.739Z,19.87
2023-10-10T01:42:55.617Z,18.83
2023-10-10T01:45:24.819Z,21.00
2023-10-10T01:47:58.381Z,19.33
2023-10-10T01:50:28.277Z,19.50
2023-10-10T01:52:57.422Z,20.00
2023-10-10T01:55:25.863Z,20.90
2023-10-10T01:57:54.221Z,20.77
2023-10-10T02:00:28.283Z,18.70
2023-10-10T02:02:58.334Z,20.03
2023-10-10T02:05:37.995Z,20.90
2023-10-10T02:08:10.989Z,20.07
2023-10-10T02:10:44.517Z,20.73
2023-10-10T02:13:12.637Z,19.57
2023-10-10T02:15:40.749Z,19.00
2023-10-10T02:18:13.606Z,18.27
2023-10-10T02:20:46.894Z,19.40
2023-10-10T02:23:33.146Z,18.67
2023-10-10T02:26:04.656Z,18.57
2023-10-10T02:28:45.098Z,18.80
2023-10-10T02:31:14.115Z,18.17
2023-10-10T02:33:49.809Z,19.40
2023-10-10T02:36:17.512Z,19.20
2023-10-10T02:38:56.971Z,17.40
2023-10-10T02:41:24.098Z,18.03
2023-10-10T02:43:57.707Z,19.27
2023-10-10T02:46:49.836Z,19.80
2023-10-10T02:49:28.449Z,18.00
2023-10-10T02:51:58.659Z,21.53
2023-10-10T02:54:27.201Z,19.60
2023-10-10T02:56:58.646Z,19.33
2023-10-10T02:59:32.776Z,19.40
2023-10-10T03:02:20.354Z,18.30
2023-10-10T03:05:03.808Z,18.60
2023-10-10T03:07:31.366Z,18.67
2023-10-10T03:10:05.012Z,19.43
2023-10-10T03:12:32.917Z,17.87
2023-10-10T03:15:35.350Z,18.37
2023-10-10T03:18:11.081Z,18.03
2023-10-10T03:20:38.059Z,19.10
2023-10-10T03:23:08.577Z,16.80
2023-10-10T03:25:47.981Z,19.37
2023-10-10T03:28:41.565Z,18.20
2023-10-10T03:31:34.389Z,19.57
2023-10-10T03:34:19.982Z,18.50
2023-10-10T03:37:03.663Z,18.83
2023-10-10T03:39:52.280Z,18.30
2023-10-10T03:42:37.817Z,18.53
2023-10-10T03:45:23.537Z,19.53
2023-10-10T03:48:09.119Z,19.80
2023-10-10T03:51:02.775Z,17.73
2023-10-10T03:53:48.794Z,18.17
2023-10-10T03:56:38.368Z,17.40
2023-10-10T03:59:25.317Z,17.77
2023-10-10T04:02:12.782Z,18.80
2023-10-10T04:05:08.747Z,21.37
2023-10-10T04:08:05.549Z,19.17
2023-10-10T04:10:51.084Z,19.70
2023-10-10T04:13:36.437Z,19.60
2023-10-10T04:16:26.999Z,20.03
2023-10-10T04:19:12.153Z,19.40
2023-10-10T04:21:57.553Z,22.03
2023-10-10T04:24:42.935Z,20.47
2023-10-10T04:27:28.500Z,20.03
2023-10-10T04:30:13.877Z,19.23
2023-10-10T04:32:59.548Z,19.13
2023-10-10T04:35:44.893Z,19.30
2023-10-10T04:38:30.376Z,18.13
2023-10-10T04:41:15.796Z,18.00
2023-10-10T04:44:00.953Z,20.00
2023-10-10T04:46:46.201Z,18.17
2023-10-10T04:49:31.728Z,18.27
2023-10-10T04:52:17.277Z,19.50
2023-10-10T04:55:02.704Z,19.13
2023-10-10T04:57:48.012Z,18.40
2023-10-10T05:00:33.887Z,19.73
2023-10-10T05:03:19.569Z,19.37
2023-10-10T05:06:17.110Z,20.67
2023-10-10T05:09:03.129Z,19.73
2023-10-10T05:11:49.042Z,20.93
2023-10-10T05:14:34.629Z,18.33
2023-10-10T05:17:20.416Z,19.00
2023-10-10T05:20:05.757Z,19.07
2023-10-10T05:22:51.249Z,20.97
2023-10-10T05:25:26.897Z,18.67
2023-10-10T05:27:57.674Z,18.27
2023-10-10T05:30:24.615Z,20.07
2023-10-10T05:33:05.043Z,19.17
2023-10-10T05:35:38.224Z,18.00
2023-10-10T05:38:08.478Z,20.10
2023-10-10T05:40:35.892Z,20.80
2023-10-10T05:43:10.420Z,20.87
2023-10-10T05:45:37.809Z,21.63
2023-10-10T05:48:08.652Z,21.27
2023-10-10T05:50:35.781Z,21.60
2023-10-10T05:53:04.954Z,25.73
2023-10-10T05:55:34.965Z,25.17
2023-10-10T05:58:06.437Z,26.13
2023-10-10T06:00:37.988Z,26.43
2023-10-10T06:03:08.390Z,28.40
2023-10-10T06:05:36.192Z,27.33
2023-10-10T06:08:03.585Z,25.60
2023-10-10T06:10:34.180Z,26.47
2023-10-10T06:13:07.991Z,27.83
2023-10-10T06:15:36.292Z,25.47
2023-10-10T06:18:19.515Z,28.70
2023-10-10T06:21:06.778Z,30.07
2023-10-10T06:23:36.761Z,27.27
2023-10-10T06:26:05.506Z,28.30
2023-10-10T06:28:46.276Z,27.03
2023-10-10T06:31:34.817Z,31.83
2023-10-10T06:34:20.336Z,30.70
2023-10-10T06:36:49.221Z,29.87
2023-10-10T06:39:16.380Z,28.67
2023-10-10T06:41:47.956Z,28.43
2023-10-10T06:44:15.954Z,30.47
2023-10-10T06:46:43.849Z,28.00
2023-10-10T06:49:13.497Z,27.90
2023-10-10T06:51:41.199Z,31.13
2023-10-10T06:54:10.093Z,28.40
2023-10-10T06:56:46.508Z,27.43
2023-10-10T06:59:22.029Z,29.23
2023-10-10T07:01:49.856Z,28.37
2023-10-10T07:04:17.853Z,29.20
2023-10-10T07:06:49.032Z,28.70
2023-10-10T07:09:16.365Z,28.97
2023-10-10T07:11:43.744Z,30.60
2023-10-10T07:14:17.386Z,31.83
2023-10-10T07:16:44.720Z,31.03
2023-10-10T07:19:23.303Z,26.93
2023-10-10T07:21:52.792Z,29.97
2023-10-10T07:24:19.674Z,31.23
2023-10-10T07:26:59.829Z,28.70
2023-10-10T07:29:31.860Z,30.90
2023-10-10T07:32:17.133Z,29.63
2023-10-10T07:34:50.616Z,28.73
2023-10-10T07:37:18.770Z,29.87
2023-10-10T07:40:04.549Z,29.50
2023-10-10T07:42:32.323Z,30.40
2023-10-10T07:44:59.624Z,29.53
2023-10-10T07:47:27.984Z,29.03
2023-10-10T07:50:00.834Z,29.97
2023-10-10T07:52:27.895Z,28.27
2023-10-10T07:54:55.378Z,29.83
2023-10-10T07:57:29.652Z,28.47
2023-10-10T08:00:00.022Z,30.20
2023-10-10T08:02:33.149Z,27.77
2023-10-10T08:05:02.287Z,28.70
2023-10-10T08:07:30.012Z,29.70
2023-10-10T08:10:15.828Z,30.33
2023-10-10T08:12:43.717Z,27.80
2023-10-10T08:15:26.824Z,27.97
2023-10-10T08:17:56.389Z,27.70
2023-10-10T08:20:35.458Z,28.67
2023-10-10T08:23:05.881Z,26.33
2023-10-10T08:25:34.087Z,28.50
2023-10-10T08:28:01.618Z,26.73
2023-10-10T08:30:28.693Z,28.33
2023-10-10T08:32:59.808Z,28.03
2023-10-10T08:35:31.330Z,27.67
2023-10-10T08:37:58.601Z,27.67
2023-10-10T08:40:32.714Z,28.57
2023-10-10T08:43:00.544Z,27.87
2023-10-10T08:45:40.568Z,28.93
2023-10-10T08:48:14.277Z,28.37
2023-10-10T08:50:42.118Z,25.70
2023-10-10T08:53:15.487Z,26.63
2023-10-10T08:55:43.187Z,28.43
2023-10-10T08:58:11.844Z,28.37
2023-10-10T09:00:39.286Z,27.60
2023-10-10T09:03:09.556Z,26.50
2023-10-10T09:05:37.628Z,25.80
2023-10-10T09:08:16.063Z,28.10
2023-10-10T09:10:51.252Z,25.80
2023-10-10T09:13:18.504Z,25.80
2023-10-10T09:15:55.665Z,26.40
2023-10-10T09:18:24.203Z,26.07
2023-10-10T09:20:52.027Z,25.87
2023-10-10T09:23:29.843Z,24.00
2023-10-10T09:26:20.544Z,26.27
2023-10-10T09:28:56.897Z,26.43
2023-10-10T09:31:32.576Z,24.60
2023-10-10T09:34:04.557Z,25.07
2023-10-10T09:36:39.161Z,25.13
2023-10-10T09:39:10.692Z,26.70
2023-10-10T09:41:39.124Z,25.17
2023-10-10T09:44:25.146Z,24.70
2023-10-10T09:47:07.100Z,23.20
2023-10-10T09:49:52.558Z,23.27
2023-10-10T09:52:42.640Z,24.10
2023-10-10T09:55:13.937Z,21.07
2023-10-10T09:58:08.426Z,23.40
2023-10-10T10:00:39.614Z,22.73
2023-10-10T10:03:29.496Z,24.80
2023-10-10T10:06:29.290Z,24.47
2023-10-10T10:09:20.961Z,23.40
2023-10-10T10:12:31.977Z,21.80
2023-10-10T10:15:19.737Z,20.27
2023-10-10T10:18:40.845Z,20.03
2023-10-10T10:21:12.213Z,20.10
2023-10-10T10:23:47.666Z,20.33
2023-10-10T10:26:32.875Z,21.03
2023-10-10T10:29:09.612Z,20.60
2023-10-10T10:31:40.812Z,20.73
2023-10-10T10:34:11.711Z,19.80
2023-10-10T10:36:46.964Z,19.23
2023-10-10T10:39:22.481Z,19.27
2023-10-10T10:41:54.813Z,20.37
2023-10-10T10:44:46.250Z,18.83
2023-10-10T10:47:36.087Z,19.53
2023-10-10T10:50:05.508Z,19.43
2023-10-10T10:52:44.924Z,17.27
2023-10-10T10:55:28.869Z,17.97
2023-10-10T10:58:21.623Z,17.50
2023-10-10T11:00:57.791Z,17.30
2023-10-10T11:03:36.249Z,16.50
2023-10-10T11:06:07.916Z,17.43
2023-10-10T11:11:29.016Z,17.97
2023-10-10T11:14:11.010Z,16.20
2023-10-10T11:16:39.405Z,19.33
2023-10-10T11:19:13.851Z,16.87
2023-10-10T11:21:50.045Z,14.57
2023-10-10T11:24:25.202Z,15.70
2023-10-10T11:27:07.308Z,15.63
2023-10-10T11:29:43.957Z,15.73
2023-10-10T11:32:14.140Z,15.43
2023-10-10T11:34:44.336Z,13.40
2023-10-10T11:37:24.760Z,12.63
2023-10-10T11:39:59.117Z,13.90
2023-10-10T11:42:34.445Z,14.00
2023-10-10T11:45:08.540Z,13.53
2023-10-10T11:47:45.991Z,13.53
2023-10-10T11:50:14.339Z,12.20
2023-10-10T11:53:01.543Z,12.83
2023-10-10T11:55:29.592Z,11.93
2023-10-10T11:58:07.607Z,11.63
2023-10-10T12:00:43.564Z,11.70
2023-10-10T12:03:19.461Z,10.27
2023-10-10T12:05:52.883Z,10.57
2023-10-10T12:08:26.196Z,10.77
2023-10-10T12:10:53.964Z,9.77
2023-10-10T12:13:34.507Z,9.47
2023-10-10T12:16:08.854Z,9.20
2023-10-10T12:18:36.561Z,8.80
2023-10-10T12:21:04.320Z,8.17
2023-10-10T12:23:32.815Z,8.83
2023-10-10T12:26:20.501Z,8.37
2023-10-10T12:28:48.654Z,8.23
2023-10-10T12:31:18.697Z,6.93
2023-10-10T12:33:54.936Z,6.20
2023-10-10T12:36:24.244Z,6.80
2023-10-10T12:38:51.148Z,7.17
2023-10-10T12:41:22.210Z,6.07
2023-10-10T12:43:52.514Z,5.83
2023-10-10T12:46:22.328Z,6.10
2023-10-10T12:48:52.900Z,5.93
2023-10-10T12:51:23.850Z,5.60
2023-10-10T12:54:01.155Z,4.90
2023-10-10T12:56:29.272Z,5.80
2023-10-10T12:59:18.386Z,4.53
2023-10-10T13:01:48.783Z,5.07
2023-10-10T13:04:19.028Z,5.57
2023-10-10T13:06:52.838Z,5.63
2023-10-10T13:09:20.449Z,4.87
2023-10-10T13:11:48.999Z,5.00
2023-10-10T13:14:18.507Z,5.70
2023-10-10T13:16:45.451Z,5.43
2023-10-10T13:19:13.114Z,5.97
2023-10-10T13:21:41.803Z,5.73
2023-10-10T13:24:13.317Z,4.93
2023-10-10T13:26:43.157Z,5.97
2023-10-10T13:29:10.035Z,5.97
2023-10-10T13:31:39.309Z,5.50
2023-10-10T13:34:06.320Z,5.70
2023-10-10T13:36:33.904Z,5.63
2023-10-10T13:39:06.833Z,5.27
2023-10-10T13:41:37.244Z,5.70
2023-10-10T13:44:04.869Z,5.00
2023-10-10T13:46:39.147Z,5.43
2023-10-10T13:49:09.973Z,6.10
2023-10-10T13:51:43.133Z,5.10
2023-10-10T13:54:09.981Z,5.10
2023-10-10T13:56:36.979Z,6.27
2023-10-10T13:59:04.025Z,5.73
2023-10-10T14:01:31.345Z,5.13
2023-10-10T14:04:05.985Z,5.93
2023-10-10T14:06:46.642Z,6.40
2023-10-10T14:09:23.098Z,6.10
2023-10-10T14:11:58.449Z,5.97
2023-10-10T14:14:25.546Z,6.37
2023-10-10T14:16:52.603Z,5.60
2023-10-10T14:19:19.717Z,5.47
2023-10-10T14:21:48.869Z,5.90
2023-10-10T14:24:16.333Z,5.77
2023-10-10T14:26:46.320Z,5.93
2023-10-10T14:29:14.552Z,5.63
2023-10-10T14:31:46.454Z,5.27
2023-10-10T14:34:22.076Z,5.20
2023-10-10T14:36:52.666Z,6.03
2023-10-10T14:39:29.796Z,6.00
2023-10-10T14:42:00.467Z,5.73
2023-10-10T14:44:29.422Z,5.40
2023-10-10T14:46:59.166Z,6.10
2023-10-10T14:49:32.609Z,5.47
2023-10-10T14:52:07.735Z,6.10
2023-10-10T14:54:50.044Z,6.03
2023-10-10T14:57:25.694Z,5.90
2023-10-10T14:59:56.894Z,5.80
2023-10-10T15:02:27.728Z,5.40
2023-10-10T15:04:55.839Z,5.93
2023-10-10T15:07:23.089Z,5.63
2023-10-10T15:09:49.944Z,4.70
2023-10-10T15:12:16.776Z,5.50
2023-10-10T15:14:44.079Z,5.37
2023-10-10T15:17:11.297Z,5.10
2023-10-10T15:19:42.531Z,5.90
2023-10-10T15:22:16.835Z,5.63
2023-10-10T15:24:53.634Z,5.50
2023-10-10T15:27:20.693Z,5.33
2023-10-10T15:29:47.592Z,5.27
2023-10-10T15:32:14.613Z,5.70
2023-10-10T15:34:42.707Z,5.03
2023-10-10T15:37:16.124Z,5.10
2023-10-10T15:39:43.191Z,5.60
2023-10-10T15:42:12.155Z,4.80
2023-10-10T15:44:42.487Z,5.43
2023-10-10T15:47:09.981Z,7.03
2023-10-10T15:49:43.412Z,6.00
2023-10-10T15:52:19.656Z,5.40
2023-10-10T15:54:51.920Z,5.70
2023-10-10T15:57:24.064Z,5.53
2023-10-10T15:59:52.597Z,5.63
2023-10-10T16:02:33.759Z,5.03
2023-10-10T16:05:05.267Z,5.80
2023-10-10T16:07:35.930Z,5.57
2023-10-10T16:10:08.983Z,6.10
2023-10-10T16:12:45.386Z,5.57
2023-10-10T16:15:30.608Z,4.87
2023-10-10T16:17:58.769Z,4.90
2023-10-10T16:20:28.766Z,5.30
2023-10-10T16:22:56.936Z,5.47
2023-10-10T16:25:25.390Z,4.83
2023-10-10T16:27:55.243Z,6.17
2023-10-10T16:30:24.906Z,5.63
2023-10-10T16:32:57.064Z,5.13
2023-10-10T16:35:26.843Z,5.47
2023-10-10T16:38:00.774Z,5.90
2023-10-10T16:40:33.065Z,5.33
2023-10-10T16:43:00.838Z,5.03
2023-10-10T16:45:34.225Z,5.90
2023-10-10T16:48:09.535Z,5.97
2023-10-10T16:50:37.073Z,6.37
2023-10-10T16:53:11.440Z,5.43
2023-10-10T16:55:42.338Z,5.60
2023-10-10T16:58:15.864Z,5.73
2023-10-10T17:00:48.537Z,6.23
2023-10-10T17:03:16.430Z,6.13
2023-10-10T17:05:52.227Z,5.70
2023-10-10T17:08:19.964Z,6.20
2023-10-10T17:11:00.933Z,6.50
2023-10-10T17:13:27.791Z,6.33
2023-10-10T17:16:01.857Z,5.73
2023-10-10T17:18:38.114Z,6.40
2023-10-10T17:21:08.328Z,6.40
2023-10-10T17:23:39.504Z,5.70
2023-10-10T17:26:20.287Z,5.97
2023-10-10T17:28:49.498Z,7.00
2023-10-10T17:31:21.187Z,6.37
2023-10-10T17:33:48.299Z,6.43
2023-10-10T17:36:18.013Z,6.47
2023-10-10T17:38:48.536Z,6.87
2023-10-10T17:41:19.370Z,6.57
2023-10-10T17:43:55.470Z,6.70
2023-10-10T17:46:24.941Z,6.90
2023-10-10T17:48:55.645Z,7.50
2023-10-10T17:51:33.339Z,6.53
2023-10-10T17:54:00.833Z,6.93
2023-10-10T17:56:32.971Z,7.60
2023-10-10T17:59:06.910Z,9.50
2023-10-10T18:01:35.453Z,36.97
2023-10-10T18:04:06.398Z,17.93
2023-10-10T18:06:37.890Z,10.33
2023-10-10T18:09:17.887Z,7.10
2023-10-10T18:11:44.852Z,5.90
2023-10-10T18:14:16.420Z,7.47
2023-10-10T18:16:51.825Z,6.60
2023-10-10T18:19:23.319Z,7.57
2023-10-10T18:21:54.754Z,7.03
2023-10-10T18:24:29.349Z,7.63
2023-10-10T18:26:59.193Z,7.00
2023-10-10T18:29:29.773Z,7.37
2023-10-10T18:32:01.692Z,8.40
2023-10-10T18:34:33.049Z,6.80
2023-10-10T18:37:04.948Z,6.90
2023-10-10T18:39:39.350Z,6.93
2023-10-10T18:42:10.807Z,7.83
2023-10-10T18:44:42.460Z,6.80
2023-10-10T18:47:15.349Z,7.13
2023-10-10T18:49:51.840Z,7.33
2023-10-10T18:52:23.763Z,7.57
2023-10-10T18:54:54.655Z,7.17
2023-10-10T18:57:30.959Z,7.30
2023-10-10T19:00:07.245Z,7.20
2023-10-10T19:02:34.253Z,7.57
2023-10-10T19:05:03.884Z,8.73
2023-10-10T19:07:36.084Z,7.27
2023-10-10T19:10:08.081Z,8.20
2023-10-10T19:12:35.966Z,7.33
2023-10-10T19:15:13.905Z,8.67
2023-10-10T19:17:44.431Z,7.90
2023-10-10T19:20:19.236Z,7.80
2023-10-10T19:22:50.591Z,8.43
2023-10-10T19:25:18.189Z,7.20
2023-10-10T19:27:55.744Z,7.73
2023-10-10T19:30:34.818Z,7.70
2023-10-10T19:33:02.407Z,7.63
2023-10-10T19:35:29.496Z,7.93
2023-10-10T19:37:56.552Z,7.53
2023-10-10T19:40:29.334Z,6.80
2023-10-10T19:42:57.331Z,7.80
2023-10-10T19:45:27.664Z,6.90
2023-10-10T19:48:04.797Z,7.30
2023-10-10T19:50:45.902Z,8.07
2023-10-10T19:53:16.972Z,7.47
2023-10-10T19:55:50.281Z,7.23
2023-10-10T19:58:17.313Z,7.47
2023-10-10T20:00:46.905Z,7.23
2023-10-10T20:03:15.325Z,8.17
2023-10-10T20:05:44.209Z,7.10
2023-10-10T20:08:15.805Z,6.87
2023-10-10T20:10:50.715Z,8.27
2023-10-10T20:13:22.773Z,7.60
2023-10-10T20:15:53.937Z,6.67
2023-10-10T20:18:26.320Z,7.60
2023-10-10T20:21:07.849Z,8.00
2023-10-10T20:23:39.413Z,7.87
2023-10-10T20:26:20.420Z,7.67
2023-10-10T20:28:54.362Z,6.83
2023-10-10T20:31:22.947Z,7.50
2023-10-10T20:33:50.160Z,7.97
2023-10-10T20:36:24.998Z,7.93
2023-10-10T20:38:51.957Z,7.57
2023-10-10T20:41:18.801Z,7.63
2023-10-10T20:43:45.754Z,10.73
2023-10-10T20:46:22.719Z,8.03
2023-10-10T20:48:54.937Z,7.40
2023-10-10T20:51:28.463Z,6.80
2023-10-10T20:54:05.134Z,7.50
2023-10-10T20:56:34.478Z,7.00
2023-10-10T20:59:04.783Z,7.83
2023-10-10T21:01:38.858Z,8.03
2023-10-10T21:04:10.021Z,7.57
2023-10-10T21:06:40.640Z,7.10
2023-10-10T21:09:12.192Z,7.50
2023-10-10T21:11:43.076Z,7.07
2023-10-10T21:14:13.353Z,7.97
2023-10-10T21:16:46.155Z,7.10
2023-10-10T21:19:18.099Z,7.73
2023-10-10T21:21:48.744Z,7.10
2023-10-10T21:24:19.084Z,7.90
2023-10-10T21:26:53.226Z,7.93
2023-10-10T21:29:24.544Z,7.57
2023-10-10T21:31:55.207Z,7.20
2023-10-10T21:34:27.570Z,7.33
2023-10-10T21:36:58.206Z,7.30
2023-10-10T21:39:29.736Z,8.00
2023-10-10T21:42:00.672Z,7.17
2023-10-10T21:44:34.620Z,7.10
2023-10-10T21:47:06.368Z,6.97
2023-10-10T21:49:38.460Z,6.73
2023-10-10T21:52:19.001Z,7.20
2023-10-10T21:54:49.232Z,7.27
2023-10-10T21:57:18.864Z,7.10
2023-10-10T21:59:56.420Z,6.67
2023-10-10T22:02:27.464Z,7.10
2023-10-10T22:05:01.296Z,5.80
2023-10-10T22:07:36.421Z,6.83
2023-10-10T22:10:08.497Z,7.10
2023-10-10T22:12:39.606Z,5.90
2023-10-10T22:15:12.354Z,6.77
2023-10-10T22:17:43.981Z,7.20
2023-10-10T22:20:16.786Z,7.00
2023-10-10T22:22:45.916Z,7.47
2023-10-10T22:25:19.853Z,7.57
2023-10-10T22:27:49.995Z,6.50
2023-10-10T22:30:27.084Z,6.63
2023-10-10T22:32:55.606Z,7.00
2023-10-10T22:35:28.132Z,6.13
2023-10-10T22:37:57.506Z,6.47
2023-10-10T22:40:35.395Z,6.60
2023-10-10T22:43:06.121Z,5.90
2023-10-10T22:45:37.691Z,6.20
2023-10-10T22:48:15.878Z,6.60
2023-10-10T22:50:44.224Z,5.73
2023-10-10T22:53:17.627Z,6.30
2023-10-10T22:55:47.847Z,5.57
2023-10-10T22:58:21.380Z,7.00
2023-10-10T23:00:49.895Z,6.13
2023-10-10T23:03:21.163Z,6.07
2023-10-10T23:05:53.767Z,5.97
2023-10-10T23:08:26.200Z,5.90
2023-10-10T23:10:56.890Z,6.40
2023-10-10T23:13:35.594Z,5.50
2023-10-10T23:16:05.844Z,6.50
2023-10-10T23:18:37.390Z,6.63
2023-10-10T23:21:11.350Z,5.60
2023-10-10T23:23:42.210Z,5.87
2023-10-10T23:26:18.005Z,6.10
2023-10-10T23:28:45.442Z,5.87
2023-10-10T23:31:17.114Z,5.60
2023-10-10T23:33:46.498Z,6.37
2023-10-10T23:36:20.122Z,6.07
2023-10-10T23:38:50.634Z,5.70
2023-10-10T23:41:23.563Z,6.50
2023-10-10T23:43:54.324Z,5.80
2023-10-10T23:46:27.963Z,5.97
2023-10-10T23:48:58.759Z,6.70
2023-10-10T23:51:32.877Z,5.60
2023-10-10T23:54:00.509Z,7.27
2023-10-10T23:56:35.361Z,6.57
2023-10-10T23:59:03.657Z,6.97
